createdAt,value
2019-05-01T00:01:38.295Z,100672.37
2019-05-01T00:04:18.139Z,100671.80
2019-05-01T00:06:49.121Z,100675.37
2019-05-01T00:09:17.620Z,100669.84
2019-05-01T00:11:45.861Z,100669.84
2019-05-01T00:14:14.039Z,100668.69
2019-05-01T00:16:42.697Z,100665.09
2019-05-01T00:19:10.945Z,100664.73
2019-05-01T00:21:39.229Z,100673.30
2019-05-01T00:24:07.469Z,100670.47
2019-05-01T00:26:35.806Z,100661.97
2019-05-01T00:29:04.285Z,100661.70
2019-05-01T00:31:32.422Z,100660.70
2019-05-01T00:34:00.579Z,100666.95
2019-05-01T00:36:28.701Z,100667.41
2019-05-01T00:38:56.831Z,100658.56
2019-05-01T00:41:25.061Z,100663.59
2019-05-01T00:43:53.259Z,100656.05
2019-05-01T00:46:21.481Z,100652.97
2019-05-01T00:48:49.669Z,100642.20
2019-05-01T00:51:17.925Z,100646.55
2019-05-01T00:53:46.099Z,100638.64
2019-05-01T00:56:42.233Z,100639.00
2019-05-01T00:59:24.905Z,100639.17
2019-05-01T01:02:10.375Z,100635.08
2019-05-01T01:04:39.089Z,100632.77
2019-05-01T01:07:07.348Z,100628.72
2019-05-01T01:09:35.573Z,100636.98
2019-05-01T01:12:03.657Z,100633.67
2019-05-01T01:14:31.809Z,100630.22
2019-05-01T01:16:59.968Z,100633.58
2019-05-01T01:19:28.099Z,100635.45
2019-05-01T01:21:56.388Z,100635.75
2019-05-01T01:24:24.667Z,100624.92
2019-05-01T01:26:52.808Z,100620.56
2019-05-01T01:29:21.235Z,100624.52
2019-05-01T01:31:49.352Z,100622.02
2019-05-01T01:34:17.567Z,100620.09
2019-05-01T01:36:45.721Z,100624.39
2019-05-01T01:39:13.926Z,100619.45
2019-05-01T01:41:42.442Z,100622.16
2019-05-01T01:44:17.441Z,100608.59
2019-05-01T01:46:46.316Z,100609.92
2019-05-01T01:49:15.501Z,100601.84
2019-05-01T01:51:44.022Z,100602.22
2019-05-01T01:54:12.690Z,100595.47
2019-05-01T01:56:41.037Z,100600.41
2019-05-01T01:59:09.344Z,100591.53
2019-05-01T02:01:51.966Z,100600.02
2019-05-01T02:04:51.355Z,100594.78
2019-05-01T02:07:19.567Z,100599.73
2019-05-01T02:09:47.696Z,100585.24
2019-05-01T02:12:16.406Z,100594.92
2019-05-01T02:14:44.554Z,100596.77
2019-05-01T02:17:12.826Z,100596.44
2019-05-01T02:19:41.052Z,100600.63
2019-05-01T02:22:09.212Z,100600.70
2019-05-01T02:24:37.581Z,100598.81
2019-05-01T02:27:09.740Z,100598.28
2019-05-01T02:29:44.900Z,100594.44
2019-05-01T02:32:13.747Z,100594.36
2019-05-01T02:35:02.334Z,100597.05
2019-05-01T02:37:32.614Z,100588.55
2019-05-01T02:40:03.667Z,100588.77
2019-05-01T02:42:33.080Z,100576.20
2019-05-01T02:45:04.408Z,100571.81
2019-05-01T02:47:36.324Z,100565.20
2019-05-01T02:50:10.487Z,100568.95
2019-05-01T02:52:41.430Z,100571.52
2019-05-01T02:55:39.317Z,100565.67
2019-05-01T02:58:09.735Z,100571.92
2019-05-01T03:00:38.501Z,100580.86
2019-05-01T03:03:07.015Z,100572.09
2019-05-01T03:05:35.334Z,100572.06
2019-05-01T03:08:08.228Z,100572.02
2019-05-01T03:10:36.498Z,100566.54
2019-05-01T03:13:04.946Z,100564.06
2019-05-01T03:15:35.620Z,100568.01
2019-05-01T03:18:28.091Z,100568.22
2019-05-01T03:21:10.859Z,100572.30
2019-05-01T03:23:45.697Z,100571.98
2019-05-01T03:26:13.916Z,100572.44
2019-05-01T03:28:42.062Z,100567.70
2019-05-01T03:31:10.279Z,100565.03
2019-05-01T03:36:46.795Z,100569.55
2019-05-01T03:39:16.170Z,100561.79
2019-05-01T03:41:44.872Z,100551.55
2019-05-01T03:44:13.072Z,100559.20
2019-05-01T03:46:41.214Z,100557.95
2019-05-01T03:49:09.668Z,100551.20
2019-05-01T03:51:38.120Z,100550.16
2019-05-01T03:54:06.691Z,100551.69
2019-05-01T03:56:34.825Z,100557.60
2019-05-01T03:59:03.872Z,100552.81
2019-05-01T04:01:51.128Z,100547.80
2019-05-01T04:04:22.118Z,100546.59
2019-05-01T04:06:50.514Z,100541.93
2019-05-01T04:09:18.924Z,100541.16
2019-05-01T04:11:47.407Z,100542.20
2019-05-01T04:14:15.751Z,100543.28
2019-05-01T04:16:46.283Z,100551.20
2019-05-01T04:19:14.869Z,100546.39
2019-05-01T04:21:48.646Z,100551.17
2019-05-01T04:24:16.818Z,100549.11
2019-05-01T04:26:45.146Z,100549.19
2019-05-01T04:29:32.458Z,100551.48
2019-05-01T04:32:13.756Z,100551.04
2019-05-01T04:34:49.079Z,100549.24
2019-05-01T04:37:24.508Z,100548.91
2019-05-01T04:39:52.655Z,100546.59
2019-05-01T04:42:20.781Z,100547.69
2019-05-01T04:44:49.049Z,100552.98
2019-05-01T04:47:17.854Z,100551.40
2019-05-01T04:49:46.372Z,100553.36
2019-05-01T04:52:14.570Z,100558.24
2019-05-01T04:54:42.858Z,100561.03
2019-05-01T04:57:11.178Z,100564.05
2019-05-01T04:59:59.687Z,100569.48
2019-05-01T05:02:46.792Z,100562.72
2019-05-01T05:05:15.443Z,100565.36
2019-05-01T05:07:43.597Z,100567.03
2019-05-01T05:10:11.861Z,100565.72
2019-05-01T05:12:48.520Z,100563.66
2019-05-01T05:15:27.275Z,100564.93
2019-05-01T05:17:55.725Z,100565.67
2019-05-01T05:20:24.504Z,100569.58
2019-05-01T05:22:52.784Z,100566.81
2019-05-01T05:25:21.001Z,100567.52
2019-05-01T05:27:51.631Z,100565.08
2019-05-01T05:33:30.410Z,100568.04
2019-05-01T05:35:59.659Z,100573.55
2019-05-01T05:38:48.797Z,100571.52
2019-05-01T05:41:19.060Z,100575.44
2019-05-01T05:43:47.343Z,100573.97
2019-05-01T05:46:15.977Z,100573.97
2019-05-01T05:48:44.382Z,100572.86
2019-05-01T05:51:35.958Z,100570.16
2019-05-01T05:54:11.838Z,100578.16
2019-05-01T05:56:48.436Z,100584.25
2019-05-01T05:59:22.113Z,100579.55
2019-05-01T06:08:06.754Z,100579.45
2019-05-01T06:10:58.567Z,100587.30
2019-05-01T06:13:47.015Z,100583.46
2019-05-01T06:16:32.134Z,100587.22
2019-05-01T06:19:17.438Z,100590.75
2019-05-01T06:22:10.301Z,100588.44
2019-05-01T06:24:42.362Z,100582.81
2019-05-01T06:27:13.729Z,100577.10
2019-05-01T06:29:41.528Z,100578.41
2019-05-01T06:32:09.792Z,100582.25
2019-05-01T06:34:38.026Z,100582.06
2019-05-01T06:37:06.187Z,100578.35
2019-05-01T06:39:34.656Z,100577.62
2019-05-01T06:42:04.214Z,100577.46
2019-05-01T06:44:44.164Z,100575.19
2019-05-01T06:47:22.594Z,100555.47
2019-05-01T06:50:06.002Z,100578.77
2019-05-01T06:52:36.282Z,100580.02
2019-05-01T06:55:04.891Z,100573.80
2019-05-01T06:57:33.397Z,100577.34
2019-05-01T07:00:03.176Z,100578.37
2019-05-01T07:02:34.945Z,100578.81
2019-05-01T07:05:01.765Z,100583.78
2019-05-01T07:07:31.760Z,100581.22
2019-05-01T07:10:01.326Z,100576.94
2019-05-01T07:12:51.342Z,100575.67
2019-05-01T07:15:21.907Z,100577.94
2019-05-01T07:17:49.406Z,100579.97
2019-05-01T07:20:36.541Z,100578.71
2019-05-01T07:23:05.547Z,100568.02
2019-05-01T07:25:34.810Z,100575.01
2019-05-01T07:28:03.812Z,100564.82
2019-05-01T07:30:54.966Z,100566.64
2019-05-01T07:33:20.200Z,100570.54
2019-05-01T07:35:49.080Z,100572.00
2019-05-01T07:38:17.466Z,100564.16
2019-05-01T07:40:45.966Z,100568.53
2019-05-01T07:43:30.621Z,100575.70
2019-05-01T07:46:08.359Z,100569.34
2019-05-01T07:48:41.721Z,100576.14
2019-05-01T07:51:09.473Z,100574.67
2019-05-01T07:53:38.808Z,100578.98
2019-05-01T07:56:08.129Z,100569.75
2019-05-01T07:58:36.691Z,100574.67
2019-05-01T08:01:32.948Z,100574.42
2019-05-01T08:04:01.161Z,100574.36
2019-05-01T08:06:29.502Z,100570.50
2019-05-01T08:08:57.762Z,100573.38
2019-05-01T08:11:26.107Z,100570.84
2019-05-01T08:14:01.503Z,100567.90
2019-05-01T08:16:24.317Z,100567.92
2019-05-01T08:18:59.160Z,100567.75
2019-05-01T08:21:47.627Z,100565.78
2019-05-01T08:24:17.905Z,100558.24
2019-05-01T08:26:46.044Z,100567.17
2019-05-01T08:29:41.974Z,100563.39
2019-05-01T08:32:33.661Z,100562.47
2019-05-01T08:35:05.178Z,100566.33
2019-05-01T08:37:33.459Z,100564.14
2019-05-01T08:40:01.693Z,100565.47
2019-05-01T08:42:29.905Z,100570.48
2019-05-01T08:45:23.321Z,100569.45
2019-05-01T08:48:01.487Z,100565.54
2019-05-01T08:50:29.901Z,100561.52
2019-05-01T08:52:58.194Z,100565.83
2019-05-01T08:55:26.433Z,100560.88
2019-05-01T08:57:54.631Z,100558.95
2019-05-01T09:00:22.909Z,100565.14
2019-05-01T09:02:51.111Z,100557.00
2019-05-01T09:05:28.163Z,100561.23
2019-05-01T09:07:51.297Z,100562.50
2019-05-01T09:10:21.604Z,100553.98
2019-05-01T09:12:52.095Z,100562.87
2019-05-01T09:15:19.712Z,100548.45
2019-05-01T09:17:47.906Z,100257.66
2019-05-01T09:20:16.817Z,100555.14
2019-05-01T09:22:45.109Z,100552.76
2019-05-01T09:25:15.380Z,100345.95
2019-05-01T09:28:03.992Z,100546.55
2019-05-01T09:30:42.754Z,100549.88
2019-05-01T09:33:11.049Z,100550.00
2019-05-01T09:35:40.197Z,100544.31
2019-05-01T09:38:08.364Z,100543.64
2019-05-01T09:40:36.504Z,100544.77
2019-05-01T09:43:04.710Z,100540.18
2019-05-01T09:45:33.136Z,100546.41
2019-05-01T09:48:01.320Z,100540.91
2019-05-01T09:50:31.592Z,100549.08
2019-05-01T09:53:18.968Z,100536.70
2019-05-01T09:55:53.575Z,100540.23
2019-05-01T09:58:21.793Z,100540.23
2019-05-01T10:03:24.995Z,100541.55
2019-05-01T10:05:53.289Z,100537.21
2019-05-01T10:08:24.312Z,100536.11
2019-05-01T10:10:52.924Z,100528.91
2019-05-01T10:13:22.445Z,100530.06
2019-05-01T10:15:50.144Z,100521.60
2019-05-01T10:18:19.992Z,100532.45
2019-05-01T10:20:48.200Z,100520.38
2019-05-01T10:23:16.502Z,100517.84
2019-05-01T10:25:49.829Z,100522.89
2019-05-01T10:28:27.067Z,100513.64
2019-05-01T10:31:14.222Z,100517.82
2019-05-01T10:33:44.813Z,100517.88
2019-05-01T10:36:35.287Z,100511.34
2019-05-01T10:39:05.125Z,100508.79
2019-05-01T10:41:33.427Z,100512.18
2019-05-01T10:44:01.840Z,100508.37
2019-05-01T10:46:30.184Z,100503.08
2019-05-01T10:48:58.476Z,100500.88
2019-05-01T10:51:26.746Z,100494.96
2019-05-01T10:53:54.913Z,100495.83
2019-05-01T10:56:23.632Z,100494.45
2019-05-01T10:58:51.930Z,100486.91
2019-05-01T11:01:39.840Z,100493.48
2019-05-01T11:04:08.077Z,100484.80
2019-05-01T11:06:36.375Z,100483.27
2019-05-01T11:09:05.117Z,100481.44
2019-05-01T11:11:33.466Z,100474.41
2019-05-01T11:14:01.634Z,100469.50
2019-05-01T11:16:29.983Z,100470.50
2019-05-01T11:18:58.387Z,100467.19
2019-05-01T11:21:26.825Z,100469.37
2019-05-01T11:23:55.105Z,100464.37
2019-05-01T11:26:23.424Z,100470.33
2019-05-01T11:28:51.756Z,100469.47
2019-05-01T11:31:24.348Z,100463.56
2019-05-01T11:34:20.721Z,100468.34
2019-05-01T11:37:14.359Z,100465.52
2019-05-01T11:39:56.551Z,100470.23
2019-05-01T11:42:24.763Z,100468.64
2019-05-01T11:44:53.067Z,100461.00
2019-05-01T11:47:21.411Z,100459.27
2019-05-01T11:49:49.982Z,100465.92
2019-05-01T11:52:18.159Z,100461.05
2019-05-01T11:54:46.529Z,100456.22
2019-05-01T11:57:14.893Z,100454.31
2019-05-01T11:59:43.132Z,100458.96
2019-05-01T12:02:11.314Z,100453.80
2019-05-01T12:04:39.523Z,100451.33
2019-05-01T12:07:07.699Z,100454.71
2019-05-01T12:09:35.900Z,100448.00
2019-05-01T12:12:07.571Z,100449.09
2019-05-01T12:14:35.916Z,100438.48
2019-05-01T12:17:29.095Z,100439.59
2019-05-01T12:19:57.443Z,100432.80
2019-05-01T12:22:25.632Z,100440.20
2019-05-01T12:24:53.793Z,100434.30
2019-05-01T12:27:22.079Z,100427.99
2019-05-01T12:29:50.306Z,100428.53
2019-05-01T12:32:18.459Z,100426.65
2019-05-01T12:34:46.655Z,100422.91
2019-05-01T12:37:18.309Z,100416.94
2019-05-01T12:39:46.865Z,100421.83
2019-05-01T12:42:15.830Z,100411.48
2019-05-01T12:44:44.175Z,100408.84
2019-05-01T12:47:20.629Z,100398.17
2019-05-01T12:49:50.121Z,100405.42
2019-05-01T12:52:26.809Z,100396.21
2019-05-01T12:55:03.636Z,100395.66
2019-05-01T12:57:31.820Z,100385.30
2019-05-01T13:00:08.504Z,100389.31
2019-05-01T13:02:30.145Z,100391.28
2019-05-01T13:04:58.461Z,100383.71
2019-05-01T13:07:26.754Z,100388.02
2019-05-01T13:09:55.188Z,100386.95
2019-05-01T13:12:23.451Z,100378.05
2019-05-01T13:14:51.590Z,100379.98
2019-05-01T13:17:19.778Z,100373.72
2019-05-01T13:19:47.957Z,100371.00
2019-05-01T13:22:16.219Z,100365.59
2019-05-01T13:24:50.558Z,100365.73
2019-05-01T13:27:24.732Z,100364.50
2019-05-01T13:30:01.758Z,100361.83
2019-05-01T13:32:42.180Z,100357.88
2019-05-01T13:35:10.599Z,100353.86
2019-05-01T13:37:38.860Z,100348.22
2019-05-01T13:40:07.863Z,100356.80
2019-05-01T13:42:36.116Z,100348.47
2019-05-01T13:45:05.270Z,100341.30
2019-05-01T13:47:33.487Z,100338.23
2019-05-01T13:50:01.894Z,100326.36
2019-05-01T13:52:30.115Z,100331.55
2019-05-01T13:54:58.602Z,100335.47
2019-05-01T13:57:26.885Z,100326.10
2019-05-01T13:59:55.040Z,100325.88
2019-05-01T14:02:23.360Z,100319.41
2019-05-01T14:04:51.497Z,100315.29
2019-05-01T14:07:19.978Z,100309.58
2019-05-01T14:09:48.255Z,100313.92
2019-05-01T14:12:16.436Z,100306.70
2019-05-01T14:14:44.700Z,100310.05
2019-05-01T14:17:13.044Z,100305.41
2019-05-01T14:19:43.514Z,100299.72
2019-05-01T14:22:33.976Z,100299.78
2019-05-01T14:25:04.046Z,100294.63
2019-05-01T14:27:32.224Z,100288.33
2019-05-01T14:30:00.544Z,100285.29
2019-05-01T14:32:28.750Z,100285.77
2019-05-01T14:34:57.048Z,100279.07
2019-05-01T14:37:29.788Z,100279.59
2019-05-01T14:39:55.097Z,100279.75
2019-05-01T14:42:23.271Z,100276.09
2019-05-01T14:44:51.712Z,100271.94
2019-05-01T14:47:19.907Z,100269.27
2019-05-01T14:49:48.098Z,100265.34
2019-05-01T14:52:16.372Z,100259.47
2019-05-01T14:54:44.758Z,100073.23
2019-05-01T14:57:12.968Z,100262.70
2019-05-01T14:59:41.177Z,100257.55
2019-05-01T15:02:09.340Z,100256.70
2019-05-01T15:04:37.591Z,100260.37
2019-05-01T15:07:05.832Z,100256.17
2019-05-01T15:09:34.111Z,100254.59
2019-05-01T15:12:04.086Z,100248.41
2019-05-01T15:14:54.270Z,100247.89
2019-05-01T15:17:25.632Z,100250.73
2019-05-01T15:20:01.202Z,100238.32
2019-05-01T15:22:29.436Z,100241.38
2019-05-01T15:24:57.760Z,100239.66
2019-05-01T15:27:26.012Z,100234.69
2019-05-01T15:29:54.262Z,100230.91
2019-05-01T15:32:22.481Z,100234.17
2019-05-01T15:34:50.720Z,100223.64
2019-05-01T15:37:18.938Z,100220.50
2019-05-01T15:39:55.686Z,100219.63
2019-05-01T15:42:42.881Z,100223.41
2019-05-01T15:45:11.226Z,100216.46
2019-05-01T15:47:39.413Z,100214.98
2019-05-01T15:50:08.315Z,100216.27
2019-05-01T15:52:36.776Z,100213.83
2019-05-01T15:55:05.744Z,100212.89
2019-05-01T15:57:34.337Z,100214.58
2019-05-01T16:00:02.493Z,100211.55
2019-05-01T16:02:31.076Z,100204.52
2019-05-01T16:04:59.340Z,100201.09
2019-05-01T16:07:27.501Z,100202.69
2019-05-01T16:09:55.699Z,100197.36
2019-05-01T16:12:32.309Z,100204.49
2019-05-01T16:15:00.478Z,100192.86
2019-05-01T16:17:28.670Z,100196.06
2019-05-01T16:19:56.887Z,100195.09
2019-05-01T16:22:25.208Z,100197.95
2019-05-01T16:24:53.545Z,100182.31
2019-05-01T16:27:21.704Z,100182.03
2019-05-01T16:29:49.974Z,100186.59
2019-05-01T16:32:18.146Z,100175.38
2019-05-01T16:34:46.577Z,100177.74
2019-05-01T16:37:14.786Z,100168.66
2019-05-01T16:39:53.462Z,100171.99
2019-05-01T16:42:34.581Z,100163.41
2019-05-01T16:45:04.942Z,100171.23
2019-05-01T16:47:33.571Z,100164.55
2019-05-01T16:50:01.826Z,100159.62
2019-05-01T16:52:32.035Z,100159.54
2019-05-01T16:55:00.261Z,100152.91
2019-05-01T16:57:28.533Z,100151.12
2019-05-01T16:59:56.700Z,100157.17
2019-05-01T17:02:42.494Z,100148.90
2019-05-01T17:05:31.174Z,100151.97
2019-05-01T17:08:35.568Z,100138.28
2019-05-01T17:10:54.006Z,100144.00
2019-05-01T17:13:22.280Z,100136.77
2019-05-01T17:15:50.858Z,100140.46
2019-05-01T17:18:19.830Z,100139.92
2019-05-01T17:20:48.054Z,100137.42
2019-05-01T17:23:16.253Z,100140.48
2019-05-01T17:25:44.552Z,100138.56
2019-05-01T17:28:12.783Z,100136.74
2019-05-01T17:30:43.450Z,100134.75
2019-05-01T17:33:20.066Z,100136.90
2019-05-01T17:35:43.140Z,100141.60
2019-05-01T17:38:11.546Z,100129.91
2019-05-01T17:40:40.077Z,100132.23
2019-05-01T17:43:13.404Z,100134.02
2019-05-01T17:45:37.275Z,100134.16
2019-05-01T17:48:05.554Z,100136.69
2019-05-01T17:50:33.739Z,100129.47
2019-05-01T17:53:01.915Z,100132.09
2019-05-01T17:55:30.191Z,100124.91
2019-05-01T17:57:58.403Z,100127.11
2019-05-01T18:00:41.370Z,100123.96
2019-05-01T18:03:31.616Z,100128.72
2019-05-01T18:06:13.278Z,100123.48
2019-05-01T18:08:41.509Z,100129.77
2019-05-01T18:11:14.224Z,100125.06
2019-05-01T18:13:38.749Z,100126.53
2019-05-01T18:16:06.975Z,100125.34
2019-05-01T18:18:35.167Z,100118.97
2019-05-01T18:21:03.387Z,100116.61
2019-05-01T18:23:53.033Z,100116.73
2019-05-01T18:26:38.771Z,100116.25
2019-05-01T18:29:14.302Z,100109.84
2019-05-01T18:31:42.728Z,100115.95
2019-05-01T18:34:11.026Z,100114.70
2019-05-01T18:36:44.552Z,100122.56
2019-05-01T18:39:35.776Z,100118.81
2019-05-01T18:42:06.186Z,100119.70
2019-05-01T18:44:34.372Z,100118.97
2019-05-01T18:47:02.722Z,100114.65
2019-05-01T18:49:30.952Z,100118.59
2019-05-01T18:51:59.192Z,100115.34
2019-05-01T18:54:30.332Z,100115.58
2019-05-01T18:56:57.429Z,100114.00
2019-05-01T18:59:25.922Z,100110.80
2019-05-01T19:01:54.874Z,100114.69
2019-05-01T19:04:24.535Z,100118.80
2019-05-01T19:06:52.848Z,100115.97
2019-05-01T19:09:29.665Z,100120.31
2019-05-01T19:11:50.239Z,100115.66
2019-05-01T19:14:18.515Z,100116.52
2019-05-01T19:16:47.127Z,100114.63
2019-05-01T19:19:15.642Z,100114.50
2019-05-01T19:21:46.615Z,100121.24
2019-05-01T19:24:14.315Z,100120.00
2019-05-01T19:26:44.019Z,100118.33
2019-05-01T19:29:12.267Z,100119.36
2019-05-01T19:31:40.634Z,100111.33
2019-05-01T19:34:09.038Z,100111.33
2019-05-01T19:36:40.403Z,100123.36
2019-05-01T19:39:11.675Z,100126.27
2019-05-01T19:41:38.112Z,100126.28
2019-05-01T19:44:06.402Z,100133.11
2019-05-01T19:46:34.637Z,100133.11
2019-05-01T19:49:02.786Z,100124.72
2019-05-01T19:51:31.162Z,100124.72
2019-05-01T19:53:59.415Z,100121.50
2019-05-01T19:56:27.696Z,100119.59
2019-05-01T19:58:55.958Z,100122.33
2019-05-01T20:01:24.139Z,100132.48
2019-05-01T20:03:52.378Z,100125.28
2019-05-01T20:06:20.553Z,100127.36
2019-05-01T20:08:48.785Z,100124.91
2019-05-01T20:11:17.062Z,100124.91
2019-05-01T20:13:45.361Z,100131.50
2019-05-01T20:16:14.092Z,100130.79
2019-05-01T20:18:42.349Z,100122.67
2019-05-01T20:21:10.615Z,100133.14
2019-05-01T20:23:38.783Z,100123.38
2019-05-01T20:26:07.029Z,100124.25
2019-05-01T20:28:37.220Z,100123.00
2019-05-01T20:31:05.231Z,100125.03
2019-05-01T20:33:38.651Z,100126.78
2019-05-01T20:36:05.364Z,100129.74
2019-05-01T20:38:33.341Z,100124.72
2019-05-01T20:41:01.513Z,100120.56
2019-05-01T20:43:29.674Z,100115.02
2019-05-01T20:45:57.957Z,100117.19
2019-05-01T20:48:26.208Z,100115.72
2019-05-01T20:50:54.453Z,100112.72
2019-05-01T20:53:22.751Z,100108.53
2019-05-01T20:56:11.682Z,100106.80
2019-05-01T20:58:39.822Z,100107.17
2019-05-01T21:01:08.485Z,100102.00
2019-05-01T21:03:38.413Z,100105.81
2019-05-01T21:06:15.768Z,100107.12
2019-05-01T21:08:48.218Z,100109.66
2019-05-01T21:11:21.185Z,100106.58
2019-05-01T21:13:49.381Z,100100.85
2019-05-01T21:16:17.611Z,100108.37
2019-05-01T21:18:45.758Z,100103.05
2019-05-01T21:21:14.236Z,100098.22
2019-05-01T21:23:43.461Z,100105.52
2019-05-01T21:26:13.299Z,100105.59
2019-05-01T21:28:42.978Z,100100.91
2019-05-01T21:31:13.647Z,100097.89
2019-05-01T21:33:46.401Z,100101.05
2019-05-01T21:36:11.348Z,100098.46
2019-05-01T21:38:39.449Z,100098.02
2019-05-01T21:41:07.639Z,100092.20
2019-05-01T21:43:37.136Z,100090.34
2019-05-01T21:46:05.443Z,100084.51
2019-05-01T21:48:33.640Z,100082.23
2019-05-01T21:51:03.345Z,100080.77
2019-05-01T21:53:32.813Z,100084.03
2019-05-01T21:56:02.146Z,100081.83
2019-05-01T21:58:33.385Z,100080.24
2019-05-01T22:01:01.718Z,100076.95
2019-05-01T22:03:29.880Z,100069.51
2019-05-01T22:05:58.040Z,100071.41
2019-05-01T22:08:27.032Z,100075.45
2019-05-01T22:10:57.639Z,100075.54
2019-05-01T22:13:25.587Z,100075.30
2019-05-01T22:15:58.535Z,100074.52
2019-05-01T22:18:51.180Z,100073.03
2019-05-01T22:21:41.458Z,100074.22
2019-05-01T22:24:17.714Z,100071.28
2019-05-01T22:26:53.480Z,100069.80
2019-05-01T22:29:27.229Z,100069.27
2019-05-01T22:32:12.258Z,100067.55
2019-05-01T22:34:59.888Z,100074.35
2019-05-01T22:37:28.114Z,100064.23
2019-05-01T22:40:06.139Z,100065.00
2019-05-01T22:42:34.314Z,100060.83
2019-05-01T22:45:02.484Z,100065.33
2019-05-01T22:47:30.919Z,100063.61
2019-05-01T22:49:59.121Z,100060.70
2019-05-01T22:52:28.524Z,100060.13
2019-05-01T22:54:56.740Z,100069.38
2019-05-01T22:57:24.870Z,100060.79
2019-05-01T22:59:53.045Z,100058.86
2019-05-01T23:02:28.333Z,100056.41
2019-05-01T23:04:57.499Z,100055.89
2019-05-01T23:07:25.828Z,100055.72
2019-05-01T23:09:53.982Z,100048.09
2019-05-01T23:12:22.112Z,100051.92
2019-05-01T23:14:50.351Z,100045.84
2019-05-01T23:17:24.585Z,100048.16
2019-05-01T23:19:52.758Z,100050.88
2019-05-01T23:22:22.738Z,100042.97
2019-05-01T23:24:50.931Z,100039.91
2019-05-01T23:27:19.077Z,100035.19
2019-05-01T23:29:47.382Z,100031.75
2019-05-01T23:32:15.596Z,100033.32
2019-05-01T23:34:43.852Z,100026.50
2019-05-01T23:37:12.118Z,100024.89
2019-05-01T23:39:42.135Z,100028.42
2019-05-01T23:42:10.184Z,100017.08
2019-05-01T23:44:42.853Z,100020.34
2019-05-01T23:47:08.228Z,100023.37
2019-05-01T23:49:36.547Z,100011.13
2019-05-01T23:52:05.227Z,100015.17
2019-05-01T23:54:33.507Z,100012.33
2019-05-01T23:57:01.663Z,100013.28
2019-05-01T23:59:29.837Z,100006.64
